createdAt,value
2016-05-24T00:00:23.107Z,88.56
2016-05-24T00:01:23.109Z,88.56
2016-05-24T00:02:23.097Z,88.56
2016-05-24T00:03:23.099Z,88.46
2016-05-24T00:04:23.102Z,88.56
2016-05-24T00:05:23.104Z,88.56
2016-05-24T00:06:23.107Z,88.66
2016-05-24T00:07:23.094Z,88.56
2016-05-24T00:08:23.097Z,88.56
2016-05-24T00:09:23.100Z,88.46
2016-05-24T00:10:23.103Z,88.56
2016-05-24T00:11:23.089Z,88.56
2016-05-24T00:12:23.108Z,88.56
2016-05-24T00:13:23.095Z,88.85
2016-05-24T00:14:22.972Z,88.46
2016-05-24T00:15:23.100Z,88.37
2016-05-24T00:16:23.103Z,88.66
2016-05-24T00:17:23.106Z,88.56
2016-05-24T00:18:23.108Z,88.37
2016-05-24T00:19:23.096Z,88.46
2016-05-24T00:20:22.942Z,88.46
2016-05-24T00:21:23.102Z,88.37
2016-05-24T00:22:23.104Z,88.37
2016-05-24T00:23:23.107Z,88.46
2016-05-24T00:24:23.093Z,88.56
2016-05-24T00:25:23.096Z,88.46
2016-05-24T00:26:23.098Z,88.37
2016-05-24T00:27:22.946Z,88.18
2016-05-24T00:28:23.088Z,88.09
2016-05-24T00:29:23.107Z,88.18
2016-05-24T00:30:23.093Z,88.28
2016-05-24T00:31:23.113Z,88.46
2016-05-24T00:32:23.099Z,88.28
2016-05-24T00:33:22.930Z,88.46
2016-05-24T00:34:23.089Z,88.46
2016-05-24T00:35:22.935Z,88.28
2016-05-24T00:36:23.094Z,88.28
2016-05-24T00:37:23.112Z,88.28
2016-05-24T00:38:23.100Z,88.28
2016-05-24T00:39:23.103Z,88.18
2016-05-24T00:40:23.090Z,88.28
2016-05-24T00:41:23.108Z,88.56
2016-05-24T00:42:23.095Z,88.18
2016-05-24T00:43:23.097Z,88.09
2016-05-24T00:44:23.459Z,88.18
2016-05-24T00:45:23.087Z,88.18
2016-05-24T00:46:23.090Z,88.18
2016-05-24T00:47:23.092Z,88.28
2016-05-24T00:48:23.095Z,88.09
2016-05-24T00:49:23.098Z,88.09
2016-05-24T00:50:23.101Z,88.46
2016-05-24T00:51:23.103Z,88.28
2016-05-24T00:52:23.091Z,88.28
2016-05-24T00:53:23.093Z,88.28
2016-05-24T00:54:22.940Z,88.28
2016-05-24T00:55:23.099Z,88.28
2016-05-24T00:56:23.102Z,88.28
2016-05-24T00:57:23.104Z,88.46
2016-05-24T00:58:23.091Z,88.46
2016-05-24T00:59:22.953Z,88.46
2016-05-24T01:00:23.107Z,88.46
2016-05-24T01:01:23.138Z,88.46
2016-05-24T01:02:23.154Z,88.46
2016-05-24T01:03:23.186Z,88.46
2016-05-24T01:04:23.216Z,88.18
2016-05-24T01:05:23.240Z,88.46
2016-05-24T01:06:23.253Z,88.18
2016-05-24T01:07:23.265Z,88.46
2016-05-24T01:08:23.279Z,88.37
2016-05-24T01:09:23.292Z,88.28
2016-05-24T01:10:23.286Z,88.18
2016-05-24T01:11:23.292Z,88.46
2016-05-24T01:12:23.283Z,88.37
2016-05-24T01:13:23.305Z,88.46
2016-05-24T01:14:23.312Z,88.56
2016-05-24T01:15:23.302Z,88.28
2016-05-24T01:16:23.305Z,88.18
2016-05-24T01:17:23.309Z,88.28
2016-05-24T01:18:23.329Z,88.37
2016-05-24T01:19:23.316Z,88.28
2016-05-24T01:20:23.320Z,88.28
2016-05-24T01:21:23.309Z,88.46
2016-05-24T01:22:23.311Z,88.28
2016-05-24T01:23:23.315Z,88.46
2016-05-24T01:24:23.145Z,88.46
2016-05-24T01:25:23.305Z,88.66
2016-05-24T01:26:23.307Z,88.46
2016-05-24T01:27:23.311Z,88.66
2016-05-24T01:28:23.313Z,88.56
2016-05-24T01:29:23.317Z,88.46
2016-05-24T01:30:23.303Z,88.66
2016-05-24T01:31:23.323Z,88.66
2016-05-24T01:32:23.310Z,88.56
2016-05-24T01:33:23.312Z,88.56
2016-05-24T01:34:23.314Z,88.37
2016-05-24T01:35:23.302Z,88.46
2016-05-24T01:36:23.319Z,88.56
2016-05-24T01:37:23.323Z,88.85
2016-05-24T01:38:23.311Z,88.85
2016-05-24T01:39:23.313Z,89.04
2016-05-24T01:40:23.316Z,88.66
2016-05-24T01:41:23.318Z,88.66
2016-05-24T01:42:23.305Z,89.14
2016-05-24T01:43:23.151Z,88.75
2016-05-24T01:44:23.608Z,88.85
2016-05-24T01:45:23.313Z,88.56
2016-05-24T01:46:23.301Z,88.85
2016-05-24T01:47:23.318Z,89.04
2016-05-24T01:48:23.306Z,88.75
2016-05-24T01:49:23.152Z,88.94
2016-05-24T01:50:23.296Z,88.94
2016-05-24T01:51:23.314Z,89.23
2016-05-24T01:52:23.301Z,89.14
2016-05-24T01:53:23.319Z,89.14
2016-05-24T01:54:23.322Z,89.14
2016-05-24T01:55:23.325Z,89.14
2016-05-24T01:56:23.312Z,89.32
2016-05-24T01:57:23.158Z,89.32
2016-05-24T01:58:23.317Z,89.04
2016-05-24T01:59:23.304Z,88.85
2016-05-24T02:00:23.307Z,88.94
2016-05-24T02:01:23.309Z,88.85
2016-05-24T02:02:23.297Z,89.14
2016-05-24T02:03:23.299Z,89.14
2016-05-24T02:04:23.302Z,89.14
2016-05-24T02:05:23.319Z,89.23
2016-05-24T02:06:23.308Z,89.23
2016-05-24T02:07:23.311Z,89.32
2016-05-24T02:08:23.297Z,89.51
2016-05-24T02:09:23.299Z,89.7
2016-05-24T02:10:23.302Z,89.04
2016-05-24T02:11:23.305Z,89.14
2016-05-24T02:12:23.324Z,89.51
2016-05-24T02:13:23.295Z,89.14
2016-05-24T02:14:23.501Z,88.85
2016-05-24T02:15:23.300Z,89.51
2016-05-24T02:16:23.302Z,89.61
2016-05-24T02:17:23.305Z,89.51
2016-05-24T02:18:23.308Z,89.51
2016-05-24T02:19:23.310Z,89.42
2016-05-24T02:20:23.299Z,89.42
2016-05-24T02:21:23.301Z,89.32
2016-05-24T02:22:23.303Z,89.32
2016-05-24T02:23:23.306Z,89.61
2016-05-24T02:24:23.309Z,89.61
2016-05-24T02:25:23.296Z,89.23
2016-05-24T02:26:23.298Z,89.32
2016-05-24T02:27:23.301Z,89.32
2016-05-24T02:28:23.304Z,89.7
2016-05-24T02:29:23.479Z,89.7
2016-05-24T02:30:23.309Z,89.61
2016-05-24T02:31:23.297Z,89.7
2016-05-24T02:32:23.314Z,89.7
2016-05-24T02:33:23.302Z,89.61
2016-05-24T02:34:23.304Z,89.61
2016-05-24T02:35:23.292Z,89.89
2016-05-24T02:36:23.294Z,89.89
2016-05-24T02:37:23.297Z,89.89
2016-05-24T02:38:23.315Z,89.89
2016-05-24T02:39:23.302Z,89.8
2016-05-24T02:40:23.305Z,89.8
2016-05-24T02:41:23.308Z,89.61
2016-05-24T02:42:23.295Z,89.7
2016-05-24T02:43:23.297Z,89.8
2016-05-24T02:44:23.284Z,89.8
2016-05-24T02:45:23.302Z,89.7
2016-05-24T02:46:23.305Z,89.8
2016-05-24T02:47:23.308Z,89.7
2016-05-24T02:48:23.358Z,89.8
2016-05-24T02:49:23.204Z,89.89
2016-05-24T02:50:23.207Z,89.8
2016-05-24T02:51:23.303Z,89.84
2016-05-24T02:52:23.353Z,89.8
2016-05-24T02:53:23.356Z,89.51
2016-05-24T02:54:23.296Z,89.61
2016-05-24T02:55:23.298Z,89.61
2016-05-24T02:56:23.301Z,89.8
2016-05-24T02:57:23.304Z,89.61
2016-05-24T02:58:23.307Z,89.7
2016-05-24T02:59:23.590Z,90.08
2016-05-24T03:00:23.296Z,89.8
2016-05-24T03:01:23.298Z,89.8
2016-05-24T03:02:23.145Z,89.99
2016-05-24T03:03:23.133Z,90.18
2016-05-24T03:04:23.292Z,89.7
2016-05-24T03:05:23.294Z,89.99
2016-05-24T03:06:23.297Z,90.08
2016-05-24T03:07:23.300Z,89.8
2016-05-24T03:08:23.302Z,89.61
2016-05-24T03:09:23.289Z,89.61
2016-05-24T03:10:23.292Z,89.8
2016-05-24T03:11:23.294Z,89.99
2016-05-24T03:12:23.297Z,89.99
2016-05-24T03:13:23.299Z,89.8
2016-05-24T03:14:23.693Z,89.89
2016-05-24T03:15:23.290Z,89.8
2016-05-24T03:16:23.308Z,89.51
2016-05-24T03:17:23.296Z,89.51
2016-05-24T03:18:23.141Z,89.89
2016-05-24T03:19:23.300Z,89.8
2016-05-24T03:20:23.287Z,90.28
2016-05-24T03:21:23.290Z,89.89
2016-05-24T03:22:23.293Z,90.18
2016-05-24T03:23:23.296Z,90.18
2016-05-24T03:24:23.298Z,90.13
2016-05-24T03:25:23.301Z,90.18
2016-05-24T03:26:23.288Z,90.18
2016-05-24T03:27:23.290Z,90.18
2016-05-24T03:28:23.293Z,90.18
2016-05-24T03:29:23.296Z,90.18
2016-05-24T03:30:23.142Z,90.18
2016-05-24T03:31:23.286Z,90.56
2016-05-24T03:32:23.289Z,89.99
2016-05-24T03:33:23.291Z,90.47
2016-05-24T03:34:23.137Z,90.84
2016-05-24T03:35:23.297Z,90.84
2016-05-24T03:36:23.283Z,90.75
2016-05-24T03:37:23.287Z,90.47
2016-05-24T03:38:23.289Z,90.56
2016-05-24T03:39:23.292Z,90.66
2016-05-24T03:40:23.294Z,90.66
2016-05-24T03:41:23.297Z,90.56
2016-05-24T03:42:23.283Z,90.66
2016-05-24T03:43:23.287Z,90.56
2016-05-24T03:44:23.289Z,90.56
2016-05-24T03:45:23.683Z,90.37
2016-05-24T03:46:23.294Z,90.08
2016-05-24T03:47:23.282Z,90.47
2016-05-24T03:48:23.284Z,90.56
2016-05-24T03:49:23.303Z,90.47
2016-05-24T03:50:23.290Z,90.66
2016-05-24T03:51:23.293Z,90.37
2016-05-24T03:52:23.295Z,90.37
2016-05-24T03:53:23.283Z,90.37
2016-05-24T03:54:23.285Z,90.56
2016-05-24T03:55:23.132Z,90.7
2016-05-24T03:56:23.134Z,90.61
2016-05-24T03:57:23.293Z,90.42
2016-05-24T03:58:23.281Z,90.47
2016-05-24T03:59:23.283Z,90.61
2016-05-24T04:00:23.286Z,90.7
2016-05-24T04:01:23.289Z,90.08
2016-05-24T04:02:23.291Z,90.61
2016-05-24T04:03:23.278Z,90.42
2016-05-24T04:04:23.125Z,90.61
2016-05-24T04:05:23.284Z,90.56
2016-05-24T04:06:23.286Z,90.37
2016-05-24T04:07:23.289Z,90.56
2016-05-24T04:08:23.291Z,90.37
2016-05-24T04:09:23.278Z,90.22
2016-05-24T04:10:23.281Z,90.08
2016-05-24T04:11:23.284Z,90.56
2016-05-24T04:12:23.286Z,90.28
2016-05-24T04:13:23.289Z,90.32
2016-05-24T04:14:23.291Z,90.66
2016-05-24T04:15:23.138Z,90.18
2016-05-24T04:16:23.283Z,90.28
2016-05-24T04:17:23.128Z,90.51
2016-05-24T04:18:23.131Z,90.28
2016-05-24T04:19:23.274Z,90.28
2016-05-24T04:20:23.276Z,90.28
2016-05-24T04:21:23.296Z,90.28
2016-05-24T04:22:23.282Z,90.28
2016-05-24T04:23:23.269Z,90.32
2016-05-24T04:24:23.288Z,90.32
2016-05-24T04:25:23.290Z,90.51
2016-05-24T04:26:23.277Z,90.22
2016-05-24T04:27:23.279Z,90.42
2016-05-24T04:28:23.127Z,90.42
2016-05-24T04:29:23.285Z,90.42
2016-05-24T04:30:23.132Z,90.7
2016-05-24T04:31:23.275Z,90.32
2016-05-24T04:32:23.278Z,90.61
2016-05-24T04:33:23.281Z,90.32
2016-05-24T04:34:23.284Z,90.32
2016-05-24T04:35:23.270Z,90.61
2016-05-24T04:36:23.289Z,90.32
2016-05-24T04:37:23.291Z,90.61
2016-05-24T04:38:23.278Z,90.22
2016-05-24T04:39:23.281Z,90.61
2016-05-24T04:40:23.128Z,90.61
2016-05-24T04:41:23.286Z,90.32
2016-05-24T04:42:23.274Z,90.32
2016-05-24T04:43:23.276Z,90.13
2016-05-24T04:44:23.280Z,90.22
2016-05-24T04:45:23.282Z,90.61
2016-05-24T04:46:23.285Z,90.7
2016-05-24T04:47:23.287Z,90.42
2016-05-24T04:48:23.274Z,90.13
2016-05-24T04:49:23.276Z,90.51
2016-05-24T04:50:23.280Z,90.03
2016-05-24T04:51:23.283Z,90.13
2016-05-24T04:52:23.129Z,90.22
2016-05-24T04:53:23.271Z,90.13
2016-05-24T04:54:23.274Z,90.22
2016-05-24T04:55:23.277Z,89.94
2016-05-24T04:56:23.280Z,89.94
2016-05-24T04:57:23.268Z,90.42
2016-05-24T04:58:23.270Z,90.42
2016-05-24T04:59:23.287Z,89.94
2016-05-24T05:00:23.369Z,89.94
2016-05-24T05:01:23.121Z,89.84
2016-05-24T05:02:23.281Z,89.84
2016-05-24T05:03:23.284Z,89.56
2016-05-24T05:04:23.286Z,89.84
2016-05-24T05:05:23.273Z,89.84
2016-05-24T05:06:23.275Z,90.22
2016-05-24T05:07:23.262Z,90.51
2016-05-24T05:08:23.125Z,90.13
2016-05-24T05:09:23.112Z,90.13
2016-05-24T05:10:23.286Z,90.22
2016-05-24T05:11:23.273Z,90.03
2016-05-24T05:12:23.276Z,89.94
2016-05-24T05:13:23.279Z,90.7
2016-05-24T05:14:23.281Z,90.8
2016-05-24T05:15:23.581Z,90.8
2016-05-24T05:16:23.271Z,90.8
2016-05-24T05:17:23.274Z,90.42
2016-05-24T05:18:23.277Z,90.22
2016-05-24T05:19:23.264Z,90.56
2016-05-24T05:20:23.266Z,89.79
2016-05-24T05:21:23.285Z,90.08
2016-05-24T05:22:23.272Z,90.27
2016-05-24T05:23:23.275Z,89.79
2016-05-24T05:24:23.276Z,89.79
2016-05-24T05:25:23.280Z,89.79
2016-05-24T05:26:23.268Z,89.7
2016-05-24T05:27:23.270Z,89.7
2016-05-24T05:28:23.272Z,89.41
2016-05-24T05:29:23.275Z,89.61
2016-05-24T05:30:23.121Z,89.61
2016-05-24T05:31:23.265Z,89.41
2016-05-24T05:32:23.267Z,89.32
2016-05-24T05:33:23.271Z,89.51
2016-05-24T05:34:23.273Z,89.7
2016-05-24T05:35:23.275Z,88.93
2016-05-24T05:36:23.279Z,89.79
2016-05-24T05:37:23.265Z,89.7
2016-05-24T05:38:23.267Z,89.7
2016-05-24T05:39:23.114Z,89.7
2016-05-24T05:40:23.273Z,89.7
2016-05-24T05:41:23.276Z,89.61
2016-05-24T05:42:23.278Z,89.79
2016-05-24T05:43:23.266Z,89.61
2016-05-24T05:44:23.128Z,89.89
2016-05-24T05:45:23.458Z,89.79
2016-05-24T05:46:23.274Z,89.61
2016-05-24T05:47:23.276Z,89.22
2016-05-24T05:48:23.279Z,89.89
2016-05-24T05:49:23.267Z,89.32
2016-05-24T05:50:23.269Z,89.41
2016-05-24T05:51:23.272Z,89.03
2016-05-24T05:52:23.274Z,89.41
2016-05-24T05:53:23.293Z,89.03
2016-05-24T05:54:23.279Z,88.93
2016-05-24T05:55:23.266Z,89.03
2016-05-24T05:56:23.269Z,89.22
2016-05-24T05:57:23.272Z,88.93
2016-05-24T05:58:23.274Z,88.75
2016-05-24T05:59:23.277Z,88.65
2016-05-24T06:00:23.796Z,89.13
2016-05-24T06:01:23.282Z,88.65
2016-05-24T06:02:23.114Z,88.65
2016-05-24T06:03:23.272Z,88.65
2016-05-24T06:04:23.276Z,88.46
2016-05-24T06:05:23.278Z,88.75
2016-05-24T06:06:23.265Z,88.56
2016-05-24T06:07:23.267Z,88.37
2016-05-24T06:08:23.270Z,88.22
2016-05-24T06:09:23.257Z,88.41
2016-05-24T06:10:23.275Z,88.51
2016-05-24T06:11:23.357Z,88.6
2016-05-24T06:12:23.266Z,88.6
2016-05-24T06:13:23.268Z,88.6
2016-05-24T06:14:24.834Z,88.6
2016-05-24T06:15:23.274Z,88.03
2016-05-24T06:16:23.119Z,87.84
2016-05-24T06:17:23.732Z,87.65
2016-05-24T06:18:23.282Z,87.46
2016-05-24T06:19:23.285Z,87.36
2016-05-24T06:20:23.272Z,87.31
2016-05-24T06:21:23.274Z,87.4
2016-05-24T06:22:23.277Z,87.5
2016-05-24T06:23:23.263Z,86.93
2016-05-24T06:24:23.266Z,87.21
2016-05-24T06:25:23.269Z,86.36
2016-05-24T06:26:23.272Z,86.55
2016-05-24T06:27:23.259Z,86.74
2016-05-24T06:28:23.277Z,86.93
2016-05-24T06:29:23.265Z,86.36
2016-05-24T06:30:23.267Z,86.36
2016-05-24T06:31:23.113Z,85.97
2016-05-24T06:32:23.288Z,85.97
2016-05-24T06:33:23.276Z,86.16
2016-05-24T06:34:23.278Z,86.16
2016-05-24T06:35:23.281Z,86.16
2016-05-24T06:36:23.127Z,85.6
2016-05-24T06:37:23.270Z,85.88
2016-05-24T06:38:23.273Z,85.97
2016-05-24T06:39:23.276Z,85.97
2016-05-24T06:40:23.279Z,85.64
2016-05-24T06:41:23.109Z,85.35
2016-05-24T06:42:23.267Z,85.06
2016-05-24T06:43:23.270Z,84.88
2016-05-24T06:44:23.273Z,84.49
2016-05-24T06:45:23.433Z,84.49
2016-05-24T06:46:23.264Z,84.11
2016-05-24T06:47:23.281Z,83.54
2016-05-24T06:48:23.269Z,83.64
2016-05-24T06:49:23.272Z,83.35
2016-05-24T06:50:23.275Z,83.35
2016-05-24T06:51:23.277Z,82.78
2016-05-24T06:52:23.280Z,83.16
2016-05-24T06:53:23.297Z,82.63
2016-05-24T06:54:23.285Z,82.53
2016-05-24T06:55:23.397Z,82.06
2016-05-24T06:56:23.274Z,82.06
2016-05-24T06:57:23.340Z,81.77
2016-05-24T06:58:23.374Z,81.38
2016-05-24T06:59:23.283Z,81.35
2016-05-24T07:00:23.286Z,81.44
2016-05-24T07:01:23.116Z,80.68
2016-05-24T07:02:23.291Z,80.68
2016-05-24T07:03:23.262Z,80.68
2016-05-24T07:04:23.265Z,80.58
2016-05-24T07:05:23.268Z,80.39
2016-05-24T07:06:23.270Z,80.3
2016-05-24T07:07:23.273Z,80.49
2016-05-24T07:08:23.120Z,80.39
2016-05-24T07:09:23.279Z,80.39
2016-05-24T07:10:23.281Z,80.68
2016-05-24T07:11:23.284Z,80.68
2016-05-24T07:12:23.271Z,80.11
2016-05-24T07:13:23.274Z,80.24
2016-05-24T07:14:23.276Z,80.01
2016-05-24T07:15:23.278Z,79.63
2016-05-24T07:16:23.281Z,79.86
2016-05-24T07:17:23.284Z,79.67
2016-05-24T07:18:23.286Z,79.86
2016-05-24T07:19:23.274Z,80.15
2016-05-24T07:20:23.292Z,80.15
2016-05-24T07:21:23.280Z,79.67
2016-05-24T07:22:23.329Z,80.33
2016-05-24T07:23:23.285Z,80.24
2016-05-24T07:24:23.288Z,79.96
2016-05-24T07:25:23.291Z,80.05
2016-05-24T07:26:23.136Z,80.05
2016-05-24T07:27:23.374Z,79.96
2016-05-24T07:28:23.283Z,79.38
2016-05-24T07:29:23.285Z,79.61
2016-05-24T07:30:23.241Z,79.61
2016-05-24T07:31:23.337Z,79.23
2016-05-24T07:32:23.277Z,78.94
2016-05-24T07:33:23.280Z,79.04
2016-05-24T07:34:23.280Z,78.85
2016-05-24T07:35:23.283Z,78.47
2016-05-24T07:36:23.285Z,78.37
2016-05-24T07:37:23.288Z,78.09
2016-05-24T07:38:23.276Z,78.51
2016-05-24T07:39:23.279Z,78.03
2016-05-24T07:40:23.281Z,77.55
2016-05-24T07:41:23.128Z,77.65
2016-05-24T07:42:23.286Z,77.55
2016-05-24T07:43:23.289Z,76.98
2016-05-24T07:44:23.323Z,76.98
2016-05-24T07:45:23.138Z,76.64
2016-05-24T07:46:23.298Z,75.68
2016-05-24T07:47:23.284Z,75.34
2016-05-24T07:48:23.302Z,74.28
2016-05-24T07:49:23.290Z,73.46
2016-05-24T07:50:24.326Z,73.17
2016-05-24T07:51:23.295Z,71.97
2016-05-24T07:52:23.376Z,70.91
2016-05-24T07:53:23.300Z,70.43
2016-05-24T07:54:23.288Z,69.7
2016-05-24T07:55:24.243Z,68.74
2016-05-24T07:56:23.293Z,68.4
2016-05-24T07:57:23.296Z,67.79
2016-05-24T07:58:23.299Z,68.36
2016-05-24T07:59:23.301Z,68.07
2016-05-24T08:00:24.962Z,68.07
2016-05-24T08:01:23.306Z,67.85
2016-05-24T08:02:23.309Z,68.04
2016-05-24T08:03:23.296Z,68.13
2016-05-24T08:04:23.299Z,67.82
2016-05-24T08:05:23.677Z,68.29
2016-05-24T08:06:23.304Z,68.77
2016-05-24T08:07:23.307Z,68.77
2016-05-24T08:08:23.153Z,68.39
2016-05-24T08:09:23.265Z,68.58
2016-05-24T08:10:25.193Z,68.39
2016-05-24T08:11:23.318Z,68.77
2016-05-24T08:12:23.304Z,69.06
2016-05-24T08:13:23.307Z,68.74
2016-05-24T08:14:23.310Z,68.93
2016-05-24T08:15:25.362Z,68.84
2016-05-24T08:16:23.315Z,68.74
2016-05-24T08:17:23.318Z,69.31
2016-05-24T08:18:23.415Z,69.31
2016-05-24T08:19:23.308Z,69.02
2016-05-24T08:20:23.638Z,68.93
2016-05-24T08:21:23.219Z,69.47
2016-05-24T08:22:23.160Z,69.85
2016-05-24T08:23:23.319Z,69.76
2016-05-24T08:24:23.322Z,70.33
2016-05-24T08:25:24.465Z,70.33
2016-05-24T08:26:23.327Z,70.9
2016-05-24T08:27:23.266Z,70.81
2016-05-24T08:28:23.332Z,71.19
2016-05-24T08:29:23.335Z,71.72
2016-05-24T08:30:23.838Z,71.82
2016-05-24T08:31:23.340Z,72.2
2016-05-24T08:32:23.327Z,72.39
2016-05-24T08:33:23.346Z,72.3
2016-05-24T08:34:23.332Z,72.2
2016-05-24T08:35:23.366Z,72.3
2016-05-24T08:36:23.447Z,72.68
2016-05-24T08:37:23.341Z,72.39
2016-05-24T08:38:23.343Z,72.58
2016-05-24T08:39:23.330Z,73.07
2016-05-24T08:40:25.332Z,72.87
2016-05-24T08:41:23.335Z,72.87
2016-05-24T08:42:23.338Z,73.07
2016-05-24T08:43:23.341Z,72.87
2016-05-24T08:44:23.329Z,72.78
2016-05-24T08:45:24.018Z,73.25
2016-05-24T08:46:23.334Z,73.16
2016-05-24T08:47:23.336Z,72.3
2016-05-24T08:48:23.339Z,72.49
2016-05-24T08:49:23.356Z,72.78
2016-05-24T08:50:23.219Z,72.78
2016-05-24T08:51:23.332Z,72.49
2016-05-24T08:52:23.350Z,72.3
2016-05-24T08:53:23.336Z,72.97
2016-05-24T08:54:23.183Z,73.25
2016-05-24T08:55:24.811Z,72.97
2016-05-24T08:56:23.344Z,72.87
2016-05-24T08:57:23.348Z,73.54
2016-05-24T08:58:23.256Z,73.25
2016-05-24T08:59:23.353Z,73.25
2016-05-24T09:00:24.996Z,73.35
2016-05-24T09:01:23.358Z,73.25
2016-05-24T09:02:23.346Z,73.54
2016-05-24T09:03:23.348Z,73.54
2016-05-24T09:04:23.445Z,73.54
2016-05-24T09:05:23.494Z,73.54
2016-05-24T09:06:23.356Z,73.54
2016-05-24T09:07:23.359Z,73.44
2016-05-24T09:08:23.346Z,73.63
2016-05-24T09:09:23.302Z,73.25
2016-05-24T09:10:24.304Z,73.63
2016-05-24T09:11:23.354Z,73.54
2016-05-24T09:12:23.201Z,73.16
2016-05-24T09:13:23.360Z,73.16
2016-05-24T09:14:23.362Z,73.35
2016-05-24T09:15:24.287Z,73.54
2016-05-24T09:16:23.368Z,73.83
2016-05-24T09:17:23.370Z,73.54
2016-05-24T09:18:23.373Z,73.54
2016-05-24T09:19:23.359Z,73.73
2016-05-24T09:20:24.190Z,73.63
2016-05-24T09:21:23.365Z,73.73
2016-05-24T09:22:23.368Z,73.54
2016-05-24T09:23:23.230Z,73.44
2016-05-24T09:24:23.373Z,73.73
2016-05-24T09:25:24.251Z,73.54
2016-05-24T09:26:23.567Z,73.63
2016-05-24T09:27:23.366Z,73.63
2016-05-24T09:28:23.368Z,73.25
2016-05-24T09:29:23.372Z,73.25
2016-05-24T09:30:24.171Z,73.67
2016-05-24T09:31:23.377Z,73.54
2016-05-24T09:32:23.380Z,73.19
2016-05-24T09:33:23.397Z,73.48
2016-05-24T09:34:23.228Z,73.19
2016-05-24T09:35:23.231Z,73
2016-05-24T09:36:23.374Z,72.81
2016-05-24T09:37:23.376Z,73.29
2016-05-24T09:38:23.380Z,72.72
2016-05-24T09:39:23.382Z,72.33
2016-05-24T09:40:23.244Z,72.33
2016-05-24T09:41:23.388Z,72.97
2016-05-24T09:42:23.374Z,72.97
2016-05-24T09:43:23.377Z,73.35
2016-05-24T09:44:23.490Z,73.44
2016-05-24T09:45:29.461Z,73.1
2016-05-24T09:46:23.807Z,72.91
2016-05-24T09:47:23.231Z,73.1
2016-05-24T09:48:23.235Z,73.19
2016-05-24T09:49:23.238Z,73.29
2016-05-24T09:50:23.239Z,73.48
2016-05-24T09:51:23.399Z,72.72
2016-05-24T09:52:23.386Z,72.53
2016-05-24T09:53:23.483Z,72.91
2016-05-24T09:54:23.392Z,72.53
2016-05-24T09:55:28.269Z,72.81
2016-05-24T09:56:23.475Z,72.91
2016-05-24T09:57:23.400Z,72.72
2016-05-24T09:58:23.402Z,72.43
2016-05-24T09:59:23.405Z,72.43
2016-05-24T10:00:24.267Z,72.62
2016-05-24T10:01:23.411Z,72.62
2016-05-24T10:02:23.288Z,72.53
2016-05-24T10:03:23.260Z,72.05
2016-05-24T10:04:23.513Z,72.62
2016-05-24T10:05:23.265Z,72.62
2016-05-24T10:06:23.407Z,72.33
2016-05-24T10:07:23.268Z,72.62
2016-05-24T10:08:23.434Z,72.62
2016-05-24T10:09:23.458Z,72.53
2016-05-24T10:10:23.561Z,72.62
2016-05-24T10:11:23.508Z,71.95
2016-05-24T10:12:23.523Z,72.56
2016-05-24T10:13:23.534Z,72.28
2016-05-24T10:14:23.607Z,71.99
2016-05-24T10:15:23.555Z,71.32
2016-05-24T10:16:23.567Z,70.87
2016-05-24T10:17:23.464Z,70.3
2016-05-24T10:18:23.580Z,70.24
2016-05-24T10:19:23.413Z,69.29
2016-05-24T10:20:24.324Z,68.62
2016-05-24T10:21:23.580Z,68.65
2016-05-24T10:22:23.600Z,67.41
2016-05-24T10:23:23.588Z,67.21
2016-05-24T10:24:23.592Z,66.93
2016-05-24T10:25:23.439Z,66.64
2016-05-24T10:26:23.583Z,66.38
2016-05-24T10:27:23.728Z,66.09
2016-05-24T10:28:23.590Z,65.23
2016-05-24T10:29:23.593Z,64.76
2016-05-24T10:30:25.003Z,63.99
2016-05-24T10:31:23.599Z,64.37
2016-05-24T10:32:24.165Z,63.26
2016-05-24T10:33:23.621Z,63.16
2016-05-24T10:34:23.607Z,62.87
2016-05-24T10:35:23.735Z,62.59
2016-05-24T10:36:23.612Z,62.04
2016-05-24T10:37:25.506Z,61.85
2016-05-24T10:38:23.681Z,61.66
2016-05-24T10:39:23.621Z,60.99
2016-05-24T10:40:23.467Z,60.5
2016-05-24T10:41:23.626Z,59.77
2016-05-24T10:42:25.692Z,58.81
2016-05-24T10:43:23.678Z,57.85
2016-05-24T10:44:23.619Z,57.18
2016-05-24T10:45:24.403Z,56.79
2016-05-24T10:46:23.624Z,55.38
2016-05-24T10:47:25.986Z,54.42
2016-05-24T10:48:23.614Z,53.75
2016-05-24T10:49:23.476Z,53.46
2016-05-24T10:50:23.572Z,53.01
2016-05-24T10:51:23.638Z,52.53
2016-05-24T10:52:24.922Z,51.76
2016-05-24T10:53:23.627Z,51.59
2016-05-24T10:54:23.630Z,50.92
2016-05-24T10:55:23.663Z,50.66
2016-05-24T10:56:23.651Z,50.46
2016-05-24T10:57:24.310Z,49.6
2016-05-24T10:58:23.641Z,49.31
2016-05-24T10:59:23.674Z,49.31
2016-05-24T11:00:23.693Z,48.93
2016-05-24T11:01:23.664Z,48.35
2016-05-24T11:02:27.121Z,47.87
2016-05-24T11:03:23.498Z,46.74
2016-05-24T11:04:23.657Z,46.55
2016-05-24T11:05:23.691Z,46.93
2016-05-24T11:06:23.506Z,46.55
2016-05-24T11:07:24.618Z,45.97
2016-05-24T11:08:23.668Z,46.06
2016-05-24T11:09:23.670Z,46.06
2016-05-24T11:10:23.673Z,46.06
2016-05-24T11:11:23.660Z,45.85
2016-05-24T11:12:24.522Z,45.95
2016-05-24T11:13:23.681Z,46.33
2016-05-24T11:14:23.667Z,46.33
2016-05-24T11:15:23.812Z,46.21
2016-05-24T11:16:23.533Z,46.12
2016-05-24T11:17:24.066Z,46.21
2016-05-24T11:18:23.679Z,46.12
2016-05-24T11:19:23.681Z,46.41
2016-05-24T11:20:23.528Z,46.58
2016-05-24T11:21:23.734Z,46.79
2016-05-24T11:22:24.986Z,46.41
2016-05-24T11:23:23.692Z,46.59
2016-05-24T11:24:23.695Z,46.67
2016-05-24T11:25:23.697Z,46.96
2016-05-24T11:26:23.700Z,46.96
2016-05-24T11:27:23.688Z,46.77
2016-05-24T11:28:23.549Z,46.38
2016-05-24T11:29:23.708Z,46.41
2016-05-24T11:30:23.711Z,46.12
2016-05-24T11:31:23.714Z,45.83
2016-05-24T11:32:23.716Z,45.64
2016-05-24T11:33:23.719Z,45.83
2016-05-24T11:34:23.722Z,45.73
2016-05-24T11:35:23.554Z,45.15
2016-05-24T11:36:23.712Z,44.87
2016-05-24T11:37:23.714Z,44.41
2016-05-24T11:38:23.717Z,44.7
2016-05-24T11:39:23.564Z,44.6
2016-05-24T11:40:23.723Z,44.43
2016-05-24T11:41:23.740Z,43.76
2016-05-24T11:42:23.728Z,43.57
2016-05-24T11:43:23.731Z,43.57
2016-05-24T11:44:23.733Z,43.01
2016-05-24T11:45:23.736Z,42.63
2016-05-24T11:46:23.753Z,42.53
2016-05-24T11:47:23.741Z,42.53
2016-05-24T11:48:23.744Z,42.91
2016-05-24T11:49:23.747Z,42.43
2016-05-24T11:50:23.750Z,42.5
2016-05-24T11:51:23.753Z,42.5
2016-05-24T11:52:23.754Z,42.6
2016-05-24T11:53:23.758Z,42.22
2016-05-24T11:54:23.761Z,42.12
2016-05-24T11:55:23.778Z,42.49
2016-05-24T11:56:23.688Z,42.68
2016-05-24T11:57:23.768Z,42.39
2016-05-24T11:58:23.865Z,42.68
2016-05-24T11:59:23.774Z,42.1
2016-05-24T12:00:23.713Z,42
2016-05-24T12:01:23.779Z,42.3
2016-05-24T12:02:23.626Z,42.3
2016-05-24T12:03:23.862Z,42.85
2016-05-24T12:04:23.787Z,43.23
2016-05-24T12:05:23.790Z,43.71
2016-05-24T12:06:23.793Z,43.88
2016-05-24T12:07:23.795Z,43.79
2016-05-24T12:08:23.782Z,44.37
2016-05-24T12:09:23.801Z,44.65
2016-05-24T12:10:23.819Z,44.65
2016-05-24T12:11:23.806Z,45.04
2016-05-24T12:12:23.809Z,44.56
2016-05-24T12:13:23.811Z,45.5
2016-05-24T12:14:23.814Z,45.98
2016-05-24T12:15:24.473Z,46.36
2016-05-24T12:16:23.819Z,46.55
2016-05-24T12:17:23.666Z,46.94
2016-05-24T12:18:23.809Z,46.94
2016-05-24T12:19:23.828Z,47.32
2016-05-24T12:20:23.830Z,47.1
2016-05-24T12:21:23.847Z,46.91
2016-05-24T12:22:23.820Z,47.58
2016-05-24T12:23:23.822Z,47.3
2016-05-24T12:24:23.841Z,47.2
2016-05-24T12:25:23.874Z,47.39
2016-05-24T12:26:23.862Z,47.68
2016-05-24T12:27:23.880Z,47.77
2016-05-24T12:28:23.835Z,47.68
2016-05-24T12:29:23.932Z,47.77
2016-05-24T12:30:23.857Z,47.58
2016-05-24T12:31:23.844Z,47.41
2016-05-24T12:32:23.847Z,47.51
2016-05-24T12:33:23.849Z,46.84
2016-05-24T12:34:23.868Z,46.84
2016-05-24T12:35:23.715Z,47.51
2016-05-24T12:36:23.858Z,47.61
2016-05-24T12:37:23.923Z,47.15
2016-05-24T12:38:23.863Z,47.25
2016-05-24T12:39:23.865Z,46.67
2016-05-24T12:40:23.868Z,46.38
2016-05-24T12:41:23.965Z,46
2016-05-24T12:42:23.858Z,45.81
2016-05-24T12:43:23.876Z,45.52
2016-05-24T12:44:23.894Z,45.92
2016-05-24T12:45:23.881Z,45.64
2016-05-24T12:46:23.885Z,45.15
2016-05-24T12:47:23.981Z,45.25
2016-05-24T12:48:23.749Z,45.15
2016-05-24T12:49:23.892Z,45.25
2016-05-24T12:50:23.973Z,45.15
2016-05-24T12:51:23.883Z,45.06
2016-05-24T12:52:23.901Z,45.71
2016-05-24T12:53:23.888Z,45.9
2016-05-24T12:54:23.922Z,45.71
2016-05-24T12:55:23.909Z,45.32